Flight Track Log - Related Links

Times and Time Zones

All times are in EDT time to prevent confusion due to time zone crossing. See the SWA1618 flight status page for this flight to view local times or setup timezone preferences in your user account.

Time Position Orientation Groundspeed Altitude Reporting Facility
EDT Latitude Longitude Course Direction KTS MPH feet Rate Location/Type
Sat 10:02:32 AM 41.8000 -87.7667 257° West 156 180 1,700  Level Chicago TRACON
Sat 10:03:38 AM 41.7833 -87.8667 257° West 242 278 3,000 800 Climbing Chicago TRACON
Sat 10:04:32 AM 41.7500 -87.9500 242° Southwest 273 314 3,300 600 Climbing Chicago TRACON
Sat 10:05:08 AM 41.7403 -87.9906 252° West 262 302 3,900 2,660 Climbing Chicago Center
Sat 10:06:09 AM 41.7592 -88.0894 284° West 275 316 7,600 3,512 Climbing Chicago Center
Sat 10:07:11 AM 41.7822 -88.1889 287° West 281 323 11,100 2,274 Climbing Chicago Center
Sat 10:08:13 AM 41.7894 -88.2986 275° West 301 346 12,300 1,854 Climbing Chicago Center
Sat 10:09:14 AM 41.7819 -88.4500 266° West 344 396 14,900 2,878 Climbing Chicago Center
Sat 10:10:16 AM 41.7753 -88.5875 266° West 371 427 18,200 2,806 Climbing Chicago Center
Sat 10:11:18 AM 41.7681 -88.7281 266° West 379 436 20,700 2,341 Climbing Chicago Center
Sat 10:12:19 AM 41.7622 -88.8756 267° West 396 456 23,000 2,146 Climbing Chicago Center
Sat 10:13:21 AM 41.7564 -89.0317 267° West 418 481 25,100 1,984 Climbing Chicago Center
Sat 10:14:23 AM 41.7719 -89.2203 276° West 441 507 27,100 1,742 Climbing Chicago Center
Sat 10:15:25 AM 41.7983 -89.3811 282° West 445 512 28,700 1,512 Climbing Chicago Center
Sat 10:16:26 AM 41.8267 -89.5461 283° West 456 525 30,200 1,659 Climbing Chicago Center
Sat 10:17:28 AM 41.8550 -89.7122 283° West 461 531 32,100 1,742 Climbing Chicago Center
Sat 10:18:30 AM 41.8567 -89.8811 271° West 464 534 33,800 1,707 Climbing Chicago Center
Sat 10:19:31 AM 41.8386 -90.0572 262° West 457 526 35,600 1,756 Climbing Chicago Center
Sat 10:20:33 AM 41.8211 -90.2219 262° West 452 520 37,400 1,161 Climbing Chicago Center
Sat 10:21:35 AM 41.8061 -90.3797 263° West 437 503 38,000 290 Climbing Chicago Center
Sat 10:22:37 AM 41.7822 -90.5703 261° West 452 520 38,000  Level Chicago Center
Sat 10:23:39 AM 41.7617 -90.7381 261° West 438 504 38,000  Level Chicago Center
Sat 10:24:40 AM 41.7433 -90.8983 261° West 438 504 38,000  Level Chicago Center
Sat 10:25:42 AM 41.7256 -91.0583 262° West 436 502 38,000  Level Chicago Center
Sat 10:26:44 AM 41.7072 -91.2161 261° West 433 498 38,000  Level Chicago Center
Sat 10:27:46 AM 41.6867 -91.3733 260° West 432 497 38,000  Level Chicago Center
Sat 10:28:48 AM 41.6644 -91.5622 261° West 431 496 38,000  Level Chicago Center
Sat 10:29:50 AM 41.6447 -91.7178 260° West 429 494 38,000  Level Chicago Center
Sat 10:30:52 AM 41.6247 -91.8750 260° West 431 496 38,000  Level Chicago Center
Sat 10:31:54 AM 41.6053 -92.0303 261° West 429 494 38,000  Level Chicago Center
Sat 10:32:56 AM 41.5858 -92.1869 261° West 430 495 38,000  Level Chicago Center
Sat 10:33:58 AM 41.5767 -92.3744 266° West 423 487 38,000  Level Chicago Center
Sat 10:35:00 AM 41.5739 -92.5308 269° West 426 490 38,000  Level Chicago Center
Sat 10:35:45 AM 41.5725 -92.6353 269° West 423 487 38,000  Level Minneapolis Center
Sat 10:36:47 AM 41.5711 -92.7917 269° West 425 489 38,000  Level Minneapolis Center
Sat 10:37:49 AM 41.5694 -92.9808 269° West 427 491 38,000  Level Minneapolis Center
Sat 10:38:51 AM 41.5667 -93.1375 269° West 428 493 38,000  Level Minneapolis Center
Sat 10:39:53 AM 41.5650 -93.2931 269° West 425 489 38,000  Level Minneapolis Center
Sat 10:40:54 AM 41.5628 -93.4489 269° West 425 489 38,000  Level Minneapolis Center
Sat 10:41:56 AM 41.5603 -93.6000 269° West 417 480 38,000  Level Minneapolis Center
Sat 10:42:58 AM 41.5578 -93.7856 269° West 419 482 38,000  Level Minneapolis Center
Sat 10:44:00 AM 41.5544 -93.9400 268° West 421 484 38,000  Level Minneapolis Center
Sat 10:45:02 AM 41.5514 -94.0964 269° West 424 488 38,000  Level Minneapolis Center
Sat 10:46:04 AM 41.5453 -94.2725 267° West 425 489 38,000  Level Minneapolis Center
Sat 10:47:05 AM 41.5417 -94.4292 268° West 422 486 38,000  Level Minneapolis Center
Sat 10:48:07 AM 41.5383 -94.5856 268° West 420 483 38,000  Level Minneapolis Center
Sat 10:49:09 AM 41.5333 -94.7406 268° West 418 481 38,000  Level Minneapolis Center
Sat 10:50:11 AM 41.5292 -94.8947 268° West 414 476 38,000  Level Minneapolis Center
Sat 10:51:13 AM 41.5256 -95.0464 268° West 409 471 38,000  Level Minneapolis Center
Sat 10:52:15 AM 41.5194 -95.2289 267° West 410 472 38,000  Level Minneapolis Center
Sat 10:53:17 AM 41.5139 -95.3794 267° West 407 468 38,000  Level Minneapolis Center
Sat 10:54:19 AM 41.5083 -95.5275 267° West 402 463 38,000  Level Minneapolis Center
Sat 10:55:21 AM 41.5036 -95.6892 268° West 403 464 38,000  Level Minneapolis Center
Sat 10:56:23 AM 41.4986 -95.8364 267° West 398 458 38,000  Level Minneapolis Center
Sat 10:57:25 AM 41.4925 -95.9836 267° West 397 457 38,000  Level Minneapolis Center
Sat 10:58:27 AM 41.4858 -96.1292 267° West 396 456 38,000  Level Minneapolis Center
Sat 10:59:29 AM 41.4794 -96.2756 267° West 395 455 38,000  Level Minneapolis Center
Sat 11:00:31 AM 41.4747 -96.4275 268° West 396 456 38,000  Level Minneapolis Center
Sat 11:01:33 AM 41.4686 -96.5736 267° West 396 456 38,000  Level Minneapolis Center
Sat 11:02:35 AM 41.4614 -96.7197 266° West 396 456 38,000  Level Minneapolis Center
Sat 11:03:37 AM 41.4536 -96.8978 267° West 400 460 38,000  Level Minneapolis Center
Sat 11:04:39 AM 41.4464 -97.0469 266° West 403 464 38,000  Level Minneapolis Center
Sat 11:05:41 AM 41.4386 -97.1939 266° West 400 460 38,000  Level Minneapolis Center
Sat 11:06:43 AM 41.4314 -97.3406 266° West 399 459 38,000  Level Minneapolis Center
Sat 11:07:45 AM 41.4097 -97.4864 259° West 402 463 38,000  Level Minneapolis Center
Sat 11:08:47 AM 41.3811 -97.6325 255° West 406 467 38,000  Level Minneapolis Center
Sat 11:09:49 AM 41.3500 -97.8053 257° West 402 463 38,000  Level Minneapolis Center
Sat 11:10:51 AM 41.3244 -97.9475 257° West 398 458 38,000  Level Minneapolis Center
Sat 11:11:53 AM 41.2972 -98.0864 255° West 396 456 38,000  Level Minneapolis Center
Sat 11:12:55 AM 41.2714 -98.2297 257° West 398 458 38,000  Level Minneapolis Center
Sat 11:13:57 AM 41.2444 -98.3739 256° West 401 461 38,000  Level Minneapolis Center
Sat 11:14:59 AM 41.2161 -98.5211 256° West 402 463 38,000  Level Minneapolis Center
Sat 11:16:01 AM 41.1842 -98.6928 256° West 400 460 38,000  Level Minneapolis Center
Sat 11:17:04 AM 41.1556 -98.8406 256° West 407 468 38,000  Level Minneapolis Center
Sat 11:18:06 AM 41.1258 -98.9889 255° West 413 475 38,000  Level Minneapolis Center
Sat 11:19:08 AM 41.0953 -99.1481 256° West 411 473 38,000  Level Minneapolis Center
Sat 11:20:09 AM 41.0719 -99.2656 255° West 411 473 38,000  Level Minneapolis Center
Sat 11:21:12 AM 41.0367 -99.4433 255° West 415 478 38,000  Level Minneapolis Center
Sat 11:22:14 AM 41.0078 -99.5900 255° West 413 475 38,000  Level Minneapolis Center
Sat 11:23:16 AM 40.9778 -99.7375 255° West 415 478 38,000  Level Minneapolis Center
Sat 11:24:18 AM 40.9414 -99.9142 255° West 414 476 38,000  Level Minneapolis Center
Sat 11:25:20 AM 40.9125 -100.0611 255° West 414 476 38,000  Level Minneapolis Center
Sat 11:26:22 AM 40.8817 -100.2106 255° West 419 482 38,000  Level Minneapolis Center
Sat 11:27:24 AM 40.8503 -100.3575 254° West 418 481 38,000  Level Minneapolis Center
Sat 11:28:26 AM 40.8206 -100.5053 255° West 417 480 38,000  Level Minneapolis Center
Sat 11:29:07 AM 40.8569 -100.5964 298° West 383 441 38,000  Level Denver Center
Sat 11:30:09 AM 40.9181 -100.7228 303° West 389 448 38,000  Level Denver Center
Sat 11:31:23 AM 40.9514 -100.8556 288° West 403 464 38,000  Level Denver Center
Sat 11:32:25 AM 40.8775 -101.0328 241° Southwest 443 510 38,000  Level Denver Center
Sat 11:33:27 AM 40.8186 -101.1617 239° Southwest 432 497 38,000  Level Denver Center
Sat 11:34:29 AM 40.7508 -101.3103 239° Southwest 427 491 38,000  Level Denver Center
Sat 11:35:31 AM 40.6917 -101.4386 239° Southwest 429 494 38,000  Level Denver Center
Sat 11:36:33 AM 40.6267 -101.5917 241° Southwest 429 494 38,000  Level Denver Center
Sat 11:37:36 AM 40.6031 -101.7314 257° West 411 473 38,000  Level Denver Center
Sat 11:38:38 AM 40.5728 -101.8939 256° West 410 472 38,000  Level Denver Center
Sat 11:39:40 AM 40.5458 -102.0336 256° West 411 473 38,000  Level Denver Center
Sat 11:40:42 AM 40.5167 -102.1969 257° West 412 474 38,000  Level Denver Center
Sat 11:41:44 AM 40.4903 -102.3356 256° West 410 472 38,000 -145 Level Denver Center
Sat 11:42:46 AM 40.4603 -102.4992 257° West 412 474 37,700 -1,161 Descending Denver Center
Sat 11:43:48 AM 40.4353 -102.6347 256° West 405 466 35,600 -2,323 Descending Denver Center
Sat 11:44:50 AM 40.4061 -102.7867 256° West 403 464 32,900 -2,613 Descending Denver Center
Sat 11:45:52 AM 40.3781 -102.9344 256° West 414 476 30,200 -2,323 Descending Denver Center
Sat 11:46:54 AM 40.3508 -103.0794 256° West 415 478 28,100 -1,984 Descending Denver Center
Sat 11:47:56 AM 40.3236 -103.2197 256° West 403 464 26,100 -2,129 Descending Denver Center
Sat 11:48:58 AM 40.2933 -103.3814 256° West 387 445 23,700 -2,177 Descending Denver Center
Sat 11:50:00 AM 40.2683 -103.5142 256° West 380 437 21,600 -1,790 Descending Denver Center
Sat 11:51:02 AM 40.2439 -103.6433 256° West 370 426 20,000 -1,536 Descending Denver Center
Sat 11:52:05 AM 40.2161 -103.7728 254° West 350 403 18,400 -1,248 Descending Denver Center
Sat 11:53:07 AM 40.2025 -103.8864 261° West 320 368 17,400 -1,258 Descending Denver Center
Sat 11:54:09 AM 40.2133 -104.0025 277° West 305 351 15,800 -1,452 Descending Denver Center
Sat 11:55:11 AM 40.2247 -104.1092 278° West 298 343 14,400 -1,403 Descending Denver Center
Sat 11:56:13 AM 40.2353 -104.2194 277° West 289 333 12,900 -1,258 Descending Denver Center
Sat 11:57:15 AM 40.2442 -104.3208 277° West 283 326 11,800 -1,258 Descending Denver Center
Sat 11:58:17 AM 40.2150 -104.4211 249° West 275 316 10,300 -1,306 Descending Denver Center
Sat 11:59:19 AM 40.1850 -104.5147 247° West 279 321 9,100 -871 Descending Denver Center
Sat 12:00:21 PM 40.1497 -104.5989 241° Southwest 256 295 8,500 -581 Descending Denver Center
Sat 12:01:23 PM 40.0936 -104.6428 211° Southwest 236 272 7,900 -532 Descending Denver Center
Sat 12:02:25 PM 40.0547 -104.6747 212° Southwest 201 231 7,400 -435 Descending Denver Center
Sat 12:03:27 PM 39.9942 -104.6856 188° South 182 209 7,000 -485 Descending Denver Center
Sat 12:04:41 PM 39.9483 -104.6864 181° South 167 192 6,300 -745 Descending Denver Center
Sat 12:05:44 PM 39.8958 -104.6869 180° South 155 178 5,300 -952 Descending Denver Center
Sat 12:07:00 PM 39.8617 -104.6732 North  Level Estimated
Sat 12:14:00 PM 39.8617 -104.6732 North  Level Estimated
Sat 12:15:00 PM 39.8617 -104.6732 North  Level Estimated
Sat 12:16:00 PM 39.8617 -104.6732 North  Level Estimated

Login

Don't have an account? Register now (free) for customized features, flight alerts, and more!